Time;durP1;ratioP1;P1;durP2;ratioP2;P2;SDS_P1;SDS_P2;PMS_P1;PMS_P2;Temp;Humidity;BMP_temperature;BMP_pressure;BME280_temperature;BME280_humidity;BME280_pressure;Samples;Min_cycle;Max_cycle;Signal;HPM_P1;HPM_P2
2022/03/26 00:01:50;;;;;;;142.77;70.38;;;5.90;99.90;;;;;;5007765;28;20049;-75
2022/03/26 00:04:16;;;;;;;139.55;67.05;;;5.90;99.90;;;;;;4987696;28;20045;-74
2022/03/26 00:06:42;;;;;;;144.27;70.15;;;5.90;99.90;;;;;;4993314;28;20124;-75
2022/03/26 00:09:07;;;;;;;146.27;69.20;;;5.90;99.90;;;;;;4988677;28;20049;-74
2022/03/26 00:11:33;;;;;;;151.18;69.70;;;5.90;99.90;;;;;;4998980;28;20091;-76
2022/03/26 00:13:58;;;;;;;147.27;70.53;;;5.90;99.90;;;;;;5006733;28;20041;-75
2022/03/26 00:16:24;;;;;;;152.57;72.00;;;5.80;99.90;;;;;;5005938;28;20037;-75
2022/03/26 00:18:50;;;;;;;148.77;71.95;;;5.80;99.90;;;;;;5007747;28;20053;-75
2022/03/26 00:21:15;;;;;;;143.48;70.90;;;5.80;99.90;;;;;;5000994;28;20497;-75
2022/03/26 00:23:41;;;;;;;154.40;71.97;;;5.80;99.90;;;;;;5007082;28;20045;-75
2022/03/26 00:26:10;;;;;;;140.65;69.22;;;5.80;99.90;;;;;;5010525;28;20497;-74
2022/03/26 00:28:37;;;;;;;140.35;68.38;;;5.80;99.90;;;;;;4990667;28;20489;-75
2022/03/26 00:31:06;;;;;;;132.48;65.25;;;5.80;99.90;;;;;;4990130;28;20394;-75
2022/03/26 00:33:32;;;;;;;143.48;67.30;;;5.70;99.90;;;;;;5005841;28;20034;-75
2022/03/26 00:35:58;;;;;;;141.82;71.30;;;5.70;99.90;;;;;;4993093;28;20493;-75
2022/03/26 00:38:24;;;;;;;145.80;69.43;;;5.70;99.90;;;;;;5003507;28;20048;-74
2022/03/26 00:40:50;;;;;;;148.05;70.43;;;5.70;99.90;;;;;;5008753;28;20468;-75
2022/03/26 00:43:16;;;;;;;148.60;69.75;;;5.70;99.90;;;;;;5007336;28;20119;-74
2022/03/26 00:45:43;;;;;;;156.57;73.47;;;5.70;99.90;;;;;;5006676;28;20046;-74
2022/03/26 00:48:09;;;;;;;149.45;72.30;;;5.70;99.90;;;;;;5008550;28;20041;-74
2022/03/26 00:50:35;;;;;;;152.75;73.22;;;5.70;99.90;;;;;;4995535;28;20140;-75
2022/03/26 00:53:01;;;;;;;151.63;73.70;;;5.70;99.90;;;;;;4994243;28;20046;-74
2022/03/26 00:55:27;;;;;;;154.00;73.63;;;5.70;99.90;;;;;;4994214;28;20062;-75
2022/03/26 00:57:52;;;;;;;152.80;72.90;;;5.70;99.90;;;;;;5008110;28;20037;-75
2022/03/26 01:00:18;;;;;;;150.15;72.28;;;5.70;99.90;;;;;;4997779;28;20049;-75
2022/03/26 01:02:44;;;;;;;153.63;71.25;;;5.70;99.90;;;;;;5011103;28;20130;-75
2022/03/26 01:05:10;;;;;;;147.43;71.18;;;5.70;99.90;;;;;;4983358;28;20313;-75
2022/03/26 01:07:36;;;;;;;159.07;72.28;;;5.60;99.90;;;;;;4970599;28;20089;-75
2022/03/26 01:10:03;;;;;;;156.27;75.65;;;5.70;99.90;;;;;;4992919;28;20486;-74
2022/03/26 01:12:30;;;;;;;154.27;71.93;;;5.60;99.90;;;;;;4976303;28;20065;-75
2022/03/26 01:14:56;;;;;;;149.82;70.80;;;5.60;99.90;;;;;;4983792;28;20042;-75
2022/03/26 01:17:22;;;;;;;151.25;72.45;;;5.60;99.90;;;;;;4973296;28;20057;-75
2022/03/26 01:19:48;;;;;;;154.55;72.75;;;5.50;99.90;;;;;;4992963;28;20093;-75
2022/03/26 01:22:13;;;;;;;157.75;76.25;;;5.50;99.90;;;;;;4972201;28;20117;-75
2022/03/26 01:24:40;;;;;;;158.88;75.22;;;5.50;99.90;;;;;;4993114;28;20450;-75
2022/03/26 01:27:06;;;;;;;163.27;71.85;;;5.50;99.90;;;;;;4981383;28;20045;-75
2022/03/26 01:29:32;;;;;;;166.77;75.50;;;5.50;99.90;;;;;;4994791;28;20069;-75
2022/03/26 01:31:58;;;;;;;183.00;82.68;;;5.50;99.90;;;;;;4997354;28;20049;-75
2022/03/26 01:34:26;;;;;;;170.27;78.65;;;5.50;99.90;;;;;;4974398;28;20043;-75
2022/03/26 01:36:51;;;;;;;173.95;79.70;;;5.50;99.90;;;;;;4994323;28;20035;-75
2022/03/26 01:39:18;;;;;;;169.27;78.18;;;5.60;99.90;;;;;;4977823;28;20186;-74
2022/03/26 01:41:45;;;;;;;169.85;79.07;;;5.50;99.90;;;;;;4975635;28;20061;-75
2022/03/26 01:44:14;;;;;;;175.85;79.18;;;5.50;99.90;;;;;;4975169;28;20054;-75
2022/03/26 01:46:50;;;;;;;164.80;76.47;;;5.50;99.90;;;;;;4996794;28;20047;-75
2022/03/26 01:49:16;;;;;;;175.68;78.78;;;5.40;99.90;;;;;;4993297;28;20074;-75
2022/03/26 01:51:42;;;;;;;185.63;83.13;;;5.30;99.90;;;;;;4976422;28;20043;-75
2022/03/26 01:54:08;;;;;;;184.07;81.57;;;5.30;99.90;;;;;;4974571;28;20096;-74
2022/03/26 01:56:35;;;;;;;175.48;80.63;;;5.30;99.90;;;;;;4994236;28;20037;-76
2022/03/26 01:59:01;;;;;;;189.77;81.10;;;5.30;99.90;;;;;;4976363;28;20575;-76
2022/03/26 02:01:27;;;;;;;171.68;79.75;;;5.30;99.90;;;;;;4976218;28;20775;-75
2022/03/26 02:03:52;;;;;;;184.70;81.05;;;5.30;99.90;;;;;;4970862;28;20058;-75
2022/03/26 02:06:19;;;;;;;191.65;85.13;;;5.30;99.90;;;;;;4988019;28;20041;-75
2022/03/26 02:08:45;;;;;;;189.15;84.20;;;5.20;99.90;;;;;;5011594;28;20054;-75
2022/03/26 02:11:11;;;;;;;189.77;82.75;;;5.20;99.90;;;;;;4999156;28;20034;-74
2022/03/26 02:13:50;;;;;;;197.40;85.95;;;5.20;99.90;;;;;;4994990;28;20052;-76
2022/03/26 02:16:15;;;;;;;207.18;88.07;;;5.20;99.90;;;;;;4998239;28;20058;-75
2022/03/26 02:18:41;;;;;;;218.95;88.20;;;5.20;99.90;;;;;;5006569;28;20096;-75
2022/03/26 02:21:07;;;;;;;194.45;88.20;;;5.30;99.90;;;;;;5004001;28;20056;-75
2022/03/26 02:23:33;;;;;;;189.93;83.00;;;5.30;99.90;;;;;;5009755;28;20046;-75
2022/03/26 02:25:58;;;;;;;195.07;85.43;;;5.30;99.90;;;;;;4992452;28;20133;-75
2022/03/26 02:28:24;;;;;;;187.35;81.40;;;5.30;99.90;;;;;;4989482;28;20052;-74
2022/03/26 02:30:50;;;;;;;179.80;76.60;;;5.30;99.90;;;;;;4993539;28;20797;-75
2022/03/26 02:33:16;;;;;;;188.57;79.57;;;5.20;99.90;;;;;;4996240;28;20045;-75
2022/03/26 02:35:41;;;;;;;179.57;79.05;;;5.20;99.90;;;;;;5008328;28;20042;-75
2022/03/26 02:38:09;;;;;;;210.25;86.30;;;5.10;99.90;;;;;;4995295;28;20115;-74
2022/03/26 02:40:35;;;;;;;223.02;87.93;;;5.20;99.90;;;;;;4996300;28;20061;-74
2022/03/26 02:43:00;;;;;;;204.65;81.53;;;5.20;99.90;;;;;;4998405;28;20045;-75
2022/03/26 02:45:28;;;;;;;200.40;81.50;;;5.20;99.90;;;;;;4995083;28;20042;-75
2022/03/26 02:47:54;;;;;;;214.25;84.35;;;5.20;99.90;;;;;;4997740;28;20520;-74
2022/03/26 02:50:20;;;;;;;202.32;84.43;;;5.10;99.90;;;;;;5008217;28;20037;-74
2022/03/26 02:52:48;;;;;;;227.65;88.18;;;5.10;99.90;;;;;;4990101;28;20072;-74
2022/03/26 02:55:14;;;;;;;229.43;89.00;;;5.20;99.90;;;;;;5009991;28;20501;-74
2022/03/26 02:57:40;;;;;;;220.02;86.50;;;5.10;99.90;;;;;;4992850;28;20052;-74
2022/03/26 03:00:07;;;;;;;195.00;80.97;;;5.20;99.90;;;;;;4986195;28;20411;-74
2022/03/26 03:02:34;;;;;;;186.32;72.40;;;5.10;99.90;;;;;;4995753;28;20061;-74
2022/03/26 03:05:00;;;;;;;175.57;74.25;;;5.10;99.90;;;;;;5007513;28;20045;-74
2022/03/26 03:07:26;;;;;;;160.60;69.47;;;5.00;99.90;;;;;;4967900;28;20053;-74
2022/03/26 03:09:51;;;;;;;139.00;63.63;;;5.00;99.90;;;;;;4988730;28;20042;-74
2022/03/26 03:12:17;;;;;;;133.15;61.53;;;4.90;99.90;;;;;;4969562;28;20085;-74
2022/03/26 03:14:43;;;;;;;140.65;63.00;;;4.80;99.90;;;;;;4966717;28;20042;-75
2022/03/26 03:17:09;;;;;;;154.23;67.28;;;4.80;99.90;;;;;;4969069;28;20094;-75
2022/03/26 03:19:35;;;;;;;154.85;66.82;;;4.80;99.90;;;;;;4971203;28;20055;-75
2022/03/26 03:22:03;;;;;;;151.30;65.30;;;4.70;99.90;;;;;;4981989;28;20109;-76
2022/03/26 03:24:29;;;;;;;144.07;64.78;;;4.70;99.90;;;;;;4985101;28;20061;-75
2022/03/26 03:26:55;;;;;;;145.60;65.95;;;4.70;99.90;;;;;;4980045;28;20138;-75
2022/03/26 03:29:21;;;;;;;154.88;67.53;;;4.60;99.90;;;;;;4982312;28;20046;-76
2022/03/26 03:31:48;;;;;;;134.07;61.33;;;4.60;99.90;;;;;;4964256;28;20057;-75
2022/03/26 03:34:14;;;;;;;124.88;58.92;;;4.60;99.90;;;;;;4970531;28;20048;-75
2022/03/26 03:36:39;;;;;;;124.70;57.65;;;4.60;99.90;;;;;;4968373;28;20050;-74
2022/03/26 03:39:05;;;;;;;127.30;58.10;;;4.60;99.90;;;;;;4962939;28;20053;-74
2022/03/26 03:41:31;;;;;;;116.43;54.97;;;4.60;99.90;;;;;;4981612;28;20046;-75
2022/03/26 03:43:56;;;;;;;134.32;61.65;;;4.50;99.90;;;;;;4983222;28;20789;-76
2022/03/26 03:46:22;;;;;;;149.88;64.32;;;4.40;99.90;;;;;;4980328;28;20070;-74
2022/03/26 03:48:47;;;;;;;144.38;62.22;;;4.40;99.90;;;;;;4985497;28;20133;-75
2022/03/26 03:51:13;;;;;;;143.18;63.00;;;4.50;99.90;;;;;;4964622;28;20035;-73
2022/03/26 03:53:39;;;;;;;156.35;66.88;;;4.50;99.90;;;;;;4949982;28;20046;-74
2022/03/26 03:56:04;;;;;;;160.63;67.28;;;4.50;99.90;;;;;;4981645;28;20078;-74
2022/03/26 03:58:30;;;;;;;165.98;69.32;;;4.50;99.90;;;;;;4971131;28;20566;-75
2022/03/26 04:00:57;;;;;;;167.88;68.25;;;4.50;99.90;;;;;;4968109;28;20517;-75
2022/03/26 04:03:23;;;;;;;187.07;75.72;;;4.60;99.90;;;;;;4968771;28;20043;-74
2022/03/26 04:05:48;;;;;;;182.75;74.20;;;4.60;99.90;;;;;;4998397;28;20797;-74
2022/03/26 04:08:16;;;;;;;173.88;71.30;;;4.50;99.90;;;;;;4992480;28;20048;-74
2022/03/26 04:10:41;;;;;;;198.00;74.75;;;4.50;99.90;;;;;;4993973;28;20413;-75
2022/03/26 04:13:07;;;;;;;183.60;70.43;;;4.50;99.90;;;;;;5009213;28;20049;-74
2022/03/26 04:15:32;;;;;;;177.18;76.00;;;4.50;99.90;;;;;;4985497;28;20087;-75
2022/03/26 04:17:58;;;;;;;189.65;73.20;;;4.50;99.90;;;;;;5003398;28;20041;-75
2022/03/26 04:20:24;;;;;;;168.30;69.18;;;4.50;99.90;;;;;;5007246;28;20115;-74
2022/03/26 04:22:50;;;;;;;153.15;66.60;;;4.40;99.90;;;;;;4995713;28;20045;-75
2022/03/26 04:25:16;;;;;;;151.27;67.43;;;4.40;99.90;;;;;;4992687;28;20126;-75
2022/03/26 04:27:43;;;;;;;100.72;47.92;;;4.40;99.90;;;;;;4992890;28;20069;-75
2022/03/26 04:30:10;;;;;;;79.55;44.10;;;4.20;99.90;;;;;;4992880;28;20065;-74
2022/03/26 04:32:36;;;;;;;92.88;47.22;;;4.00;99.90;;;;;;4976784;28;20056;-73
2022/03/26 04:35:01;;;;;;;96.53;47.65;;;3.90;99.90;;;;;;4985257;28;20045;-73
2022/03/26 04:37:28;;;;;;;116.03;55.22;;;3.80;99.90;;;;;;4988343;28;20042;-76
2022/03/26 04:39:54;;;;;;;137.90;59.95;;;3.70;99.90;;;;;;4994409;28;20045;-76
2022/03/26 04:42:19;;;;;;;163.10;69.20;;;3.70;99.90;;;;;;4988269;28;20052;-75
2022/03/26 04:44:45;;;;;;;153.45;64.00;;;3.80;99.90;;;;;;4988658;28;20057;-75
2022/03/26 04:47:11;;;;;;;136.10;60.80;;;3.80;99.90;;;;;;5007255;28;20064;-75
2022/03/26 04:49:36;;;;;;;150.13;61.30;;;3.90;99.90;;;;;;4997004;28;20051;-74
2022/03/26 04:52:02;;;;;;;148.05;64.68;;;3.90;99.90;;;;;;5002666;28;20038;-73
2022/03/26 04:54:28;;;;;;;162.60;68.68;;;3.90;99.90;;;;;;5010623;28;20146;-75
2022/03/26 04:56:54;;;;;;;165.70;67.82;;;4.00;99.90;;;;;;4996561;28;20033;-75
2022/03/26 04:59:19;;;;;;;165.40;69.22;;;4.00;99.90;;;;;;4995833;28;20065;-74
2022/03/26 05:01:47;;;;;;;166.63;69.45;;;4.00;99.90;;;;;;5013142;28;20121;-75
2022/03/26 05:04:13;;;;;;;157.05;67.85;;;4.00;99.90;;;;;;4988926;28;20057;-74
2022/03/26 05:06:39;;;;;;;159.25;65.75;;;4.00;99.90;;;;;;4993141;28;20072;-74
2022/03/26 05:09:05;;;;;;;151.77;68.22;;;4.10;99.90;;;;;;5006397;28;20144;-74
2022/03/26 05:11:30;;;;;;;155.40;67.03;;;4.00;99.90;;;;;;4996985;28;20312;-74
2022/03/26 05:13:57;;;;;;;159.05;68.07;;;4.00;99.90;;;;;;5001780;28;20049;-74
2022/03/26 05:16:23;;;;;;;142.90;61.30;;;4.00;99.90;;;;;;4990788;28;20045;-74
2022/03/26 05:18:48;;;;;;;151.75;64.63;;;4.00;99.90;;;;;;4995133;28;20037;-75
2022/03/26 05:21:14;;;;;;;149.02;65.97;;;3.90;99.90;;;;;;4994404;28;20451;-74
2022/03/26 05:23:40;;;;;;;156.20;64.43;;;3.90;99.90;;;;;;5007134;28;20057;-75
2022/03/26 05:26:05;;;;;;;149.20;64.47;;;4.00;99.90;;;;;;4990789;28;20042;-74
2022/03/26 05:28:31;;;;;;;151.27;66.90;;;3.90;99.90;;;;;;4985578;28;20107;-75
2022/03/26 05:30:57;;;;;;;148.73;66.30;;;4.00;99.90;;;;;;5004676;28;20119;-77
2022/03/26 05:33:23;;;;;;;147.50;66.22;;;4.00;99.90;;;;;;5005148;28;20057;-76
2022/03/26 05:35:49;;;;;;;158.40;66.00;;;4.00;99.90;;;;;;4981000;28;20115;-76
2022/03/26 05:38:15;;;;;;;153.48;64.10;;;4.00;99.90;;;;;;5004327;28;20046;-75
2022/03/26 05:40:41;;;;;;;142.48;63.20;;;4.10;99.90;;;;;;5007364;28;20057;-75
2022/03/26 05:43:07;;;;;;;146.57;62.80;;;4.10;99.90;;;;;;4996518;28;20509;-75
2022/03/26 05:45:32;;;;;;;149.05;65.93;;;4.00;99.90;;;;;;5005881;28;20064;-76
2022/03/26 05:48:01;;;;;;;170.98;69.40;;;4.10;99.90;;;;;;5007733;28;20116;-75
2022/03/26 05:50:28;;;;;;;164.93;68.40;;;4.10;99.90;;;;;;5005837;28;20042;-75
2022/03/26 05:52:54;;;;;;;168.75;67.93;;;4.10;99.90;;;;;;4996759;28;20429;-79
2022/03/26 05:55:20;;;;;;;175.30;71.45;;;4.20;99.90;;;;;;4998897;28;20050;-79
2022/03/26 05:57:46;;;;;;;168.57;69.57;;;4.20;99.90;;;;;;5007277;28;20069;-79
2022/03/26 06:00:12;;;;;;;162.82;69.25;;;4.20;99.90;;;;;;5001239;28;20144;-80
2022/03/26 06:02:38;;;;;;;168.38;70.55;;;4.30;99.90;;;;;;5000056;28;20041;-78
2022/03/26 06:05:06;;;;;;;160.85;66.65;;;4.30;99.90;;;;;;5013592;28;20077;-78
2022/03/26 06:07:32;;;;;;;181.23;72.28;;;4.30;99.90;;;;;;4994164;28;20071;-79
2022/03/26 06:09:57;;;;;;;165.90;66.35;;;4.40;99.90;;;;;;5016487;28;20041;-79
2022/03/26 06:12:23;;;;;;;183.18;69.90;;;4.40;99.90;;;;;;5006995;28;20057;-79
2022/03/26 06:14:49;;;;;;;181.95;73.28;;;4.40;99.90;;;;;;5022493;28;20037;-78
2022/03/26 06:17:15;;;;;;;183.13;73.78;;;4.50;99.90;;;;;;4999464;28;20108;-78
2022/03/26 06:19:42;;;;;;;177.70;70.18;;;4.50;99.90;;;;;;4996393;28;20050;-78
2022/03/26 06:22:07;;;;;;;172.07;70.00;;;4.60;99.90;;;;;;5011110;28;20048;-77
2022/03/26 06:24:34;;;;;;;171.70;70.60;;;4.60;99.90;;;;;;5018471;28;20033;-79
2022/03/26 06:26:59;;;;;;;168.88;68.70;;;4.70;99.90;;;;;;5017330;28;20065;-78
2022/03/26 06:29:26;;;;;;;148.63;65.82;;;4.80;99.90;;;;;;4992903;28;20136;-79
2022/03/26 06:31:52;;;;;;;144.18;62.67;;;4.80;99.90;;;;;;4979368;28;20077;-78
2022/03/26 06:34:17;;;;;;;138.20;60.17;;;5.00;99.90;;;;;;5000220;28;20497;-79
2022/03/26 06:36:43;;;;;;;143.82;60.63;;;5.00;99.90;;;;;;4991914;28;20049;-77
2022/03/26 06:39:10;;;;;;;137.82;61.00;;;5.20;99.90;;;;;;5007091;28;20045;-78
2022/03/26 06:41:39;;;;;;;147.20;66.80;;;5.30;99.90;;;;;;5000728;28;20050;-78
2022/03/26 06:44:09;;;;;;;176.20;71.15;;;5.40;99.90;;;;;;5006573;28;20045;-78
2022/03/26 06:46:35;;;;;;;175.80;72.90;;;5.50;99.90;;;;;;5025155;28;20052;-78
2022/03/26 06:49:01;;;;;;;148.90;63.80;;;5.70;99.90;;;;;;5004113;28;20125;-76
2022/03/26 06:51:27;;;;;;;131.80;61.20;;;5.80;99.90;;;;;;4995956;28;20437;-78
2022/03/26 06:53:53;;;;;;;147.48;62.78;;;5.90;99.90;;;;;;5014993;28;20558;-78
2022/03/26 06:56:18;;;;;;;146.35;66.18;;;6.00;99.90;;;;;;5009410;28;20382;-78
2022/03/26 06:58:44;;;;;;;160.23;68.80;;;6.10;99.90;;;;;;4992950;28;20134;-78
2022/03/26 07:01:13;;;;;;;169.50;73.05;;;6.20;99.90;;;;;;5007398;28;20121;-78
2022/03/26 07:03:38;;;;;;;151.05;69.82;;;6.40;99.90;;;;;;4995340;28;20077;-78
2022/03/26 07:06:04;;;;;;;162.50;70.70;;;6.50;99.90;;;;;;4984434;28;20076;-77
2022/03/26 07:08:30;;;;;;;156.73;68.55;;;6.70;99.90;;;;;;4983187;28;20038;-81
2022/03/26 07:10:57;;;;;;;151.77;66.65;;;6.80;99.90;;;;;;5002396;28;20397;-78
2022/03/26 07:13:23;;;;;;;147.95;69.53;;;6.90;99.90;;;;;;4983336;28;20058;-79
2022/03/26 07:15:49;;;;;;;160.63;70.97;;;7.10;99.90;;;;;;4966997;28;20054;-78
2022/03/26 07:18:15;;;;;;;190.93;80.55;;;7.20;99.90;;;;;;4966537;28;20200;-77
2022/03/26 07:20:41;;;;;;;184.98;79.80;;;7.40;99.90;;;;;;4962654;28;22063;-77
2022/03/26 07:23:07;;;;;;;183.02;76.07;;;7.60;99.90;;;;;;4966562;28;20549;-78
2022/03/26 07:25:33;;;;;;;164.02;72.82;;;7.80;99.90;;;;;;4964972;28;20125;-78
2022/03/26 07:27:59;;;;;;;165.15;77.18;;;7.90;99.90;;;;;;4982040;28;20121;-78
2022/03/26 07:30:26;;;;;;;164.23;73.60;;;8.10;99.90;;;;;;4985100;28;20145;-77
2022/03/26 07:32:52;;;;;;;163.15;73.35;;;8.20;99.90;;;;;;4985554;28;20065;-78
2022/03/26 07:35:17;;;;;;;154.35;73.00;;;8.30;99.90;;;;;;4984150;28;20043;-76
2022/03/26 07:37:43;;;;;;;168.60;75.50;;;8.40;99.90;;;;;;4983990;28;20490;-78
2022/03/26 07:40:10;;;;;;;159.07;72.68;;;8.60;99.90;;;;;;4964666;28;20526;-78
2022/03/26 07:42:36;;;;;;;155.30;72.25;;;8.70;99.90;;;;;;4979297;28;20544;-79
2022/03/26 07:45:02;;;;;;;157.75;75.55;;;8.80;99.90;;;;;;4983284;28;20046;-74
2022/03/26 07:47:28;;;;;;;154.50;75.88;;;8.90;99.90;;;;;;4987072;28;20731;-77
2022/03/26 07:49:54;;;;;;;148.00;72.25;;;9.00;99.90;;;;;;4990632;28;20042;-78
2022/03/26 07:52:19;;;;;;;147.48;70.03;;;9.10;99.90;;;;;;4988962;28;20042;-78
2022/03/26 07:54:45;;;;;;;147.80;72.05;;;9.20;99.90;;;;;;4985624;28;20143;-80
2022/03/26 07:57:10;;;;;;;147.20;71.28;;;9.40;99.90;;;;;;4969807;28;20156;-79
2022/03/26 07:59:36;;;;;;;149.35;72.15;;;9.50;99.90;;;;;;4969627;28;20473;-78
2022/03/26 08:02:02;;;;;;;138.43;68.22;;;9.50;99.90;;;;;;4969391;28;20050;-77
2022/03/26 08:04:27;;;;;;;132.40;68.40;;;9.60;99.90;;;;;;4969958;28;20050;-79
2022/03/26 08:06:53;;;;;;;138.52;69.30;;;9.70;99.90;;;;;;4993869;28;20050;-79
2022/03/26 08:09:19;;;;;;;136.38;69.55;;;9.80;99.90;;;;;;4995678;28;20038;-80
2022/03/26 08:11:45;;;;;;;134.80;67.43;;;9.90;99.90;;;;;;5014532;28;20053;-82
2022/03/26 08:14:11;;;;;;;128.93;62.88;;;10.00;99.90;;;;;;5000883;28;20045;-80
2022/03/26 08:16:37;;;;;;;124.60;65.22;;;10.00;99.90;;;;;;5000592;28;20137;-81
2022/03/26 08:19:03;;;;;;;120.18;62.42;;;10.10;99.90;;;;;;5024708;28;20068;-81
2022/03/26 08:21:29;;;;;;;115.68;60.47;;;10.20;99.90;;;;;;5017197;28;20045;-81
2022/03/26 08:23:55;;;;;;;118.10;59.67;;;10.20;99.90;;;;;;5020058;28;20570;-82
2022/03/26 08:26:26;;;;;;;100.47;55.10;;;10.30;99.90;;;;;;5006096;28;20049;-84
2022/03/26 08:28:54;;;;;;;110.03;53.17;;;10.40;99.90;;;;;;5019760;28;20066;-80
2022/03/26 08:31:22;;;;;;;111.32;55.92;;;10.50;99.90;;;;;;5018075;28;20129;-81
2022/03/26 08:33:48;;;;;;;100.78;52.65;;;10.60;99.90;;;;;;5021603;28;20038;-82
2022/03/26 08:36:15;;;;;;;107.20;54.50;;;10.70;99.90;;;;;;5006002;28;20101;-81
2022/03/26 08:38:44;;;;;;;106.57;56.40;;;10.80;99.90;;;;;;5006674;28;20513;-82
2022/03/26 08:41:09;;;;;;;103.75;55.67;;;10.90;99.90;;;;;;5007450;28;20072;-80
2022/03/26 08:43:35;;;;;;;105.63;56.40;;;11.00;99.90;;;;;;5003600;28;20105;-81
2022/03/26 08:46:01;;;;;;;98.10;49.53;;;11.10;99.90;;;;;;4998889;28;20048;-79
2022/03/26 08:48:26;;;;;;;93.95;50.25;;;11.30;99.90;;;;;;5019674;28;20068;-79
2022/03/26 08:50:52;;;;;;;91.82;49.85;;;11.40;99.90;;;;;;5017556;28;20069;-80
2022/03/26 08:53:18;;;;;;;85.20;44.38;;;11.40;99.90;;;;;;5020562;28;20048;-81
2022/03/26 08:55:44;;;;;;;93.63;48.42;;;11.60;99.90;;;;;;5019590;28;20466;-81
2022/03/26 08:58:10;;;;;;;86.68;45.55;;;11.70;99.90;;;;;;5015850;28;20042;-80
2022/03/26 09:00:37;;;;;;;88.90;46.33;;;11.80;99.90;;;;;;4996211;28;20124;-81
2022/03/26 09:03:03;;;;;;;80.13;44.30;;;11.80;99.90;;;;;;5015903;28;20048;-81
2022/03/26 09:05:29;;;;;;;79.93;42.95;;;11.90;99.90;;;;;;4992804;28;20046;-81
2022/03/26 09:07:55;;;;;;;79.18;42.38;;;12.10;99.90;;;;;;4992984;28;20050;-81
2022/03/26 09:10:22;;;;;;;78.22;43.10;;;12.10;99.90;;;;;;4991520;28;20045;-81
2022/03/26 09:12:47;;;;;;;80.20;43.67;;;12.30;99.90;;;;;;4998033;28;20038;-81
2022/03/26 09:15:14;;;;;;;73.57;41.42;;;12.40;99.90;;;;;;4995850;28;20044;-82
2022/03/26 09:17:39;;;;;;;72.22;39.80;;;12.50;99.90;;;;;;4998355;28;20442;-82
2022/03/26 09:20:07;;;;;;;74.65;41.88;;;12.60;99.90;;;;;;4992306;28;20104;-82
2022/03/26 09:22:33;;;;;;;65.70;37.13;;;12.60;99.90;;;;;;5011153;28;20078;-81
2022/03/26 09:25:00;;;;;;;62.28;35.15;;;12.70;99.90;;;;;;4993042;28;20569;-81
2022/03/26 09:27:25;;;;;;;56.30;34.92;;;12.80;99.90;;;;;;5016451;28;20045;-81
2022/03/26 09:29:51;;;;;;;58.30;34.20;;;12.90;99.90;;;;;;4999286;28;20052;-82
2022/03/26 09:32:17;;;;;;;57.90;35.58;;;12.90;99.90;;;;;;5018997;28;20038;-82
2022/03/26 09:34:43;;;;;;;56.83;33.47;;;13.00;99.90;;;;;;5003798;28;20515;-81
2022/03/26 09:37:09;;;;;;;53.75;32.15;;;13.10;99.90;;;;;;5012288;28;20042;-81
2022/03/26 09:39:35;;;;;;;42.45;28.20;;;13.20;99.90;;;;;;5016907;28;20133;-81
2022/03/26 09:42:00;;;;;;;40.67;25.63;;;13.20;99.90;;;;;;5018371;28;20128;-79
2022/03/26 09:44:27;;;;;;;42.65;26.65;;;13.20;99.90;;;;;;5003922;28;20075;-81
2022/03/26 09:46:53;;;;;;;46.05;28.45;;;13.40;99.90;;;;;;5002239;28;20037;-80
2022/03/26 09:49:19;;;;;;;44.10;27.73;;;13.50;99.90;;;;;;5019553;28;20277;-79
2022/03/26 09:51:45;;;;;;;43.65;26.88;;;13.60;99.90;;;;;;5005366;28;20058;-81
2022/03/26 09:54:15;;;;;;;40.30;25.23;;;13.70;99.90;;;;;;5028713;28;20708;-80
2022/03/26 09:56:41;;;;;;;39.13;26.50;;;13.80;99.90;;;;;;5005908;28;20132;-80
2022/03/26 09:59:07;;;;;;;38.03;22.88;;;13.90;99.90;;;;;;5025572;28;20053;-79
2022/03/26 10:01:33;;;;;;;31.10;20.23;;;14.00;99.90;;;;;;5005467;28;20041;-81
2022/03/26 10:04:15;;;;;;;31.63;20.73;;;14.10;99.90;;;;;;5028669;28;20044;-80
2022/03/26 10:06:56;;;;;;;34.28;21.55;;;14.10;99.90;;;;;;5005829;28;20045;-80
2022/03/26 10:09:32;;;;;;;27.80;18.00;;;14.20;99.90;;;;;;5024068;28;20049;-80
2022/03/26 10:12:05;;;;;;;31.45;20.00;;;14.20;99.90;;;;;;4997835;28;20045;-81
2022/03/26 10:14:41;;;;;;;26.42;16.60;;;14.30;99.90;;;;;;5001758;28;20045;-80
2022/03/26 10:17:13;;;;;;;28.02;16.63;;;14.40;99.90;;;;;;5017107;28;20151;-78
2022/03/26 10:19:43;;;;;;;26.63;15.50;;;14.50;99.90;;;;;;5018839;28;20059;-80
2022/03/26 10:22:29;;;;;;;22.05;15.25;;;14.60;99.90;;;;;;5016812;28;20073;-81
2022/03/26 10:24:57;;;;;;;24.02;15.45;;;14.80;99.90;;;;;;5019090;28;20108;-81
2022/03/26 10:27:23;;;;;;;21.55;13.13;;;14.90;99.90;;;;;;5008443;28;20061;-81
2022/03/26 10:29:57;;;;;;;21.88;13.15;;;14.90;99.90;;;;;;5009069;28;20030;-81
2022/03/26 10:32:45;;;;;;;24.83;14.70;;;15.00;99.90;;;;;;5027684;28;20049;-81
2022/03/26 10:35:20;;;;;;;20.67;13.27;;;15.00;99.90;;;;;;5012304;28;20042;-79
2022/03/26 10:37:56;;;;;;;18.05;11.77;;;15.10;99.90;;;;;;5004283;28;20057;-77
2022/03/26 10:40:34;;;;;;;26.50;13.07;;;15.10;99.90;;;;;;5008802;28;20069;-80
2022/03/26 10:43:02;;;;;;;17.35;10.88;;;15.20;99.90;;;;;;5001313;28;20037;-81
2022/03/26 10:45:29;;;;;;;15.85;11.32;;;15.20;99.90;;;;;;5018518;28;20068;-81
2022/03/26 10:47:57;;;;;;;13.20;9.38;;;15.30;99.90;;;;;;5003259;28;20046;-81
2022/03/26 10:50:24;;;;;;;14.15;10.45;;;15.40;99.90;;;;;;5003021;28;20421;-80
2022/03/26 10:52:55;;;;;;;14.05;7.82;;;15.50;99.90;;;;;;5016793;28;20129;-82
2022/03/26 10:55:21;;;;;;;16.92;9.00;;;15.50;99.90;;;;;;5002191;28;20057;-81
2022/03/26 10:57:48;;;;;;;15.85;9.70;;;15.50;99.90;;;;;;5004965;28;20152;-80
2022/03/26 11:00:15;;;;;;;13.80;9.07;;;15.50;99.90;;;;;;5012776;28;20098;-81
2022/03/26 11:02:42;;;;;;;14.43;8.88;;;15.50;99.90;;;;;;5005077;28;20070;-79
2022/03/26 11:05:09;;;;;;;13.75;7.75;;;15.40;99.90;;;;;;4992936;28;20054;-80
2022/03/26 11:07:41;;;;;;;13.40;7.43;;;15.50;99.90;;;;;;4983108;28;20053;-80
2022/03/26 11:10:12;;;;;;;11.80;6.82;;;15.50;99.90;;;;;;5007973;28;20050;-79
2022/03/26 11:12:44;;;;;;;14.20;7.82;;;15.60;99.90;;;;;;5010643;28;20049;-77
2022/03/26 11:15:17;;;;;;;10.75;6.68;;;15.60;99.90;;;;;;4987149;28;20112;-78
2022/03/26 11:17:43;;;;;;;11.10;7.00;;;15.60;99.90;;;;;;4988302;28;20033;-76
2022/03/26 11:20:31;;;;;;;13.30;6.97;;;15.50;99.90;;;;;;4981892;28;20049;-83
2022/03/26 11:23:16;;;;;;;9.68;6.43;;;15.60;99.90;;;;;;5000289;28;20048;-83
2022/03/26 11:25:50;;;;;;;13.23;6.82;;;15.60;99.90;;;;;;4982229;28;23052;-80
2022/03/26 11:28:28;;;;;;;10.57;7.57;;;15.50;99.90;;;;;;4982070;28;20092;-80
2022/03/26 11:31:07;;;;;;;11.50;6.82;;;15.60;99.90;;;;;;4987279;28;20037;-83
2022/03/26 11:33:36;;;;;;;14.38;7.60;;;15.70;99.90;;;;;;4987357;28;20061;-80
2022/03/26 11:36:05;;;;;;;11.70;6.88;;;15.70;99.90;;;;;;4986680;28;20044;-80
2022/03/26 11:38:32;;;;;;;12.35;6.43;;;15.70;99.90;;;;;;4986824;28;20539;-77
2022/03/26 11:41:02;;;;;;;10.75;6.55;;;15.70;99.90;;;;;;4981154;28;20048;-76
2022/03/26 11:43:43;;;;;;;9.10;5.57;;;15.70;99.90;;;;;;4982793;28;20144;-78
2022/03/26 11:52:11;;;;;;;8.70;5.50;;;15.70;99.90;;;;;;5007457;28;20463;-78
2022/03/26 11:54:37;;;;;;;7.68;5.70;;;15.80;99.90;;;;;;4976182;28;20149;-80
2022/03/26 11:57:22;;;;;;;9.50;5.28;;;15.90;99.90;;;;;;4978968;28;20214;-79
2022/03/26 11:59:49;;;;;;;9.10;4.72;;;16.10;99.90;;;;;;4982261;28;20080;-77
2022/03/26 12:02:18;;;;;;;10.48;5.00;;;16.20;99.90;;;;;;4999016;28;20052;-76
2022/03/26 12:04:55;;;;;;;6.95;4.55;;;16.20;99.90;;;;;;5001174;28;21037;-78
2022/03/26 12:07:23;;;;;;;8.32;5.47;;;16.10;99.90;;;;;;5004390;28;20038;-78
2022/03/26 12:10:03;;;;;;;10.52;5.28;;;16.10;99.90;;;;;;4986799;28;20120;-78
2022/03/26 12:12:59;;;;;;;6.95;4.60;;;16.00;99.90;;;;;;4984322;28;20050;-80
2022/03/26 12:15:30;;;;;;;7.88;4.10;;;16.00;99.90;;;;;;5002602;28;20137;-79
2022/03/26 12:18:14;;;;;;;8.88;4.88;;;16.00;99.90;;;;;;5004106;28;20057;-78
2022/03/26 12:20:48;;;;;;;8.48;4.28;;;16.00;99.90;;;;;;5002681;28;20144;-78
2022/03/26 12:23:28;;;;;;;7.85;4.15;;;16.00;99.90;;;;;;5005389;28;20252;-78
2022/03/26 12:25:59;;;;;;;8.90;4.10;;;15.80;99.90;;;;;;4982494;28;20916;-78
2022/03/26 12:28:25;;;;;;;8.63;4.53;;;15.70;99.90;;;;;;4982338;28;20041;-77
2022/03/26 12:30:56;;;;;;;8.90;4.47;;;15.60;99.90;;;;;;4984151;28;20053;-76
2022/03/26 12:33:23;;;;;;;8.27;4.80;;;15.60;99.90;;;;;;4982123;28;20061;-73
2022/03/26 12:35:51;;;;;;;10.75;4.93;;;15.60;99.90;;;;;;4987290;28;20049;-79